sensor_id;sensor_type;location;lat;lon;timestamp;pressure;altitude;pressure_sealevel;temperature;humidity
21781;BME280;52576;53.614;9.894;2023-02-26T00:00:54;101455.38;;;-1.83;80.01
21781;BME280;52576;53.614;9.894;2023-02-26T00:02:59;101457.09;;;-1.85;80.05
21781;BME280;52576;53.614;9.894;2023-02-26T00:05:03;101461.41;;;-1.85;79.86
21781;BME280;52576;53.614;9.894;2023-02-26T00:07:06;101456.25;;;-1.87;79.98
21781;BME280;52576;53.614;9.894;2023-02-26T00:09:10;101464.84;;;-1.88;79.95
21781;BME280;52576;53.614;9.894;2023-02-26T00:11:14;101469.13;;;-1.90;79.84
21781;BME280;52576;53.614;9.894;2023-02-26T00:13:18;101471.69;;;-1.91;79.92
21781;BME280;52576;53.614;9.894;2023-02-26T00:15:22;101475.13;;;-1.92;79.80
21781;BME280;52576;53.614;9.894;2023-02-26T00:17:33;101475.97;;;-1.93;79.60
21781;BME280;52576;53.614;9.894;2023-02-26T00:19:41;101482.84;;;-1.94;79.81
21781;BME280;52576;53.614;9.894;2023-02-26T00:21:44;101488.84;;;-1.95;79.75
21781;BME280;52576;53.614;9.894;2023-02-26T00:23:48;101493.97;;;-1.96;79.55
21781;BME280;52576;53.614;9.894;2023-02-26T00:25:52;101497.41;;;-1.97;79.41
21781;BME280;52576;53.614;9.894;2023-02-26T00:27:56;101493.97;;;-1.98;79.55
21781;BME280;52576;53.614;9.894;2023-02-26T00:29:59;101501.69;;;-1.98;79.55
21781;BME280;52576;53.614;9.894;2023-02-26T00:32:04;101508.53;;;-2.00;79.45
21781;BME280;52576;53.614;9.894;2023-02-26T00:34:10;101515.38;;;-1.99;79.51
21781;BME280;52576;53.614;9.894;2023-02-26T00:36:21;101507.69;;;-1.99;79.48
21781;BME280;52576;53.614;9.894;2023-02-26T00:38:28;101518.81;;;-2.00;79.43
21781;BME280;52576;53.614;9.894;2023-02-26T00:40:39;101518.81;;;-2.00;79.39
21781;BME280;52576;53.614;9.894;2023-02-26T00:42:43;101527.38;;;-2.01;79.33
21781;BME280;52576;53.614;9.894;2023-02-26T00:44:47;101525.66;;;-2.02;79.26
21781;BME280;52576;53.614;9.894;2023-02-26T00:46:55;101529.94;;;-2.02;79.28
21781;BME280;52576;53.614;9.894;2023-02-26T00:49:10;101538.50;;;-2.03;79.17
21781;BME280;52576;53.614;9.894;2023-02-26T00:51:25;101544.50;;;-2.05;79.19
21781;BME280;52576;53.614;9.894;2023-02-26T00:53:35;101544.50;;;-2.06;79.24
21781;BME280;52576;53.614;9.894;2023-02-26T00:55:42;101543.66;;;-2.07;79.05
21781;BME280;52576;53.614;9.894;2023-02-26T00:57:45;101553.06;;;-2.07;79.07
21781;BME280;52576;53.614;9.894;2023-02-26T00:59:48;101556.53;;;-2.08;79.10
21781;BME280;52576;53.614;9.894;2023-02-26T01:01:53;101554.81;;;-2.09;79.12
21781;BME280;52576;53.614;9.894;2023-02-26T01:03:57;101557.34;;;-2.08;79.03
21781;BME280;52576;53.614;9.894;2023-02-26T01:06:01;101554.78;;;-2.06;79.17
21781;BME280;52576;53.614;9.894;2023-02-26T01:08:11;101562.50;;;-2.03;78.98
21781;BME280;52576;53.614;9.894;2023-02-26T01:10:17;101553.91;;;-2.00;79.07
21781;BME280;52576;53.614;9.894;2023-02-26T01:12:22;101568.47;;;-1.98;78.97
21781;BME280;52576;53.614;9.894;2023-02-26T01:14:26;101567.63;;;-1.95;78.85
21781;BME280;52576;53.614;9.894;2023-02-26T01:16:33;101572.75;;;-1.94;78.83
21781;BME280;52576;53.614;9.894;2023-02-26T01:18:43;101567.59;;;-1.89;78.84
21781;BME280;52576;53.614;9.894;2023-02-26T01:20:53;101575.31;;;-1.85;78.73
21781;BME280;52576;53.614;9.894;2023-02-26T01:23:02;101581.25;;;-1.80;78.48
21781;BME280;52576;53.614;9.894;2023-02-26T01:25:11;101580.41;;;-1.79;78.48
21781;BME280;52576;53.614;9.894;2023-02-26T01:27:15;101576.09;;;-1.74;78.50
21781;BME280;52576;53.614;9.894;2023-02-26T01:29:19;101577.81;;;-1.71;78.10
21781;BME280;52576;53.614;9.894;2023-02-26T01:31:33;101587.22;;;-1.68;78.29
21781;BME280;52576;53.614;9.894;2023-02-26T01:33:40;101578.66;;;-1.67;78.19
21781;BME280;52576;53.614;9.894;2023-02-26T01:35:48;101582.06;;;-1.65;78.21
21781;BME280;52576;53.614;9.894;2023-02-26T01:37:56;101587.22;;;-1.65;78.03
21781;BME280;52576;53.614;9.894;2023-02-26T01:40:26;101586.34;;;-1.63;78.02
21781;BME280;52576;53.614;9.894;2023-02-26T01:42:35;101594.91;;;-1.61;78.04
21781;BME280;52576;53.614;9.894;2023-02-26T01:44:45;101581.22;;;-1.60;78.00
21781;BME280;52576;53.614;9.894;2023-02-26T01:47:03;101585.50;;;-1.57;77.87
21781;BME280;52576;53.614;9.894;2023-02-26T01:49:12;101588.03;;;-1.56;78.04
21781;BME280;52576;53.614;9.894;2023-02-26T01:51:36;101590.59;;;-1.54;78.04
21781;BME280;52576;53.614;9.894;2023-02-26T01:53:42;101587.16;;;-1.53;78.01
21781;BME280;52576;53.614;9.894;2023-02-26T01:55:49;101595.72;;;-1.51;78.07
21781;BME280;52576;53.614;9.894;2023-02-26T01:57:55;101596.56;;;-1.49;78.19
21781;BME280;52576;53.614;9.894;2023-02-26T02:00:00;101594.84;;;-1.49;78.09
21781;BME280;52576;53.614;9.894;2023-02-26T02:02:15;101606.00;;;-1.48;78.12
21781;BME280;52576;53.614;9.894;2023-02-26T02:04:21;101606.00;;;-1.51;78.04
21781;BME280;52576;53.614;9.894;2023-02-26T02:06:27;101612.88;;;-1.53;78.03
21781;BME280;52576;53.614;9.894;2023-02-26T02:08:33;101611.19;;;-1.57;78.12
21781;BME280;52576;53.614;9.894;2023-02-26T02:10:40;101617.19;;;-1.60;78.17
21781;BME280;52576;53.614;9.894;2023-02-26T02:12:50;101618.06;;;-1.62;78.32
21781;BME280;52576;53.614;9.894;2023-02-26T02:15:04;101623.22;;;-1.65;78.38
21781;BME280;52576;53.614;9.894;2023-02-26T02:17:14;101626.63;;;-1.69;78.23
21781;BME280;52576;53.614;9.894;2023-02-26T02:19:32;101630.06;;;-1.74;78.31
21781;BME280;52576;53.614;9.894;2023-02-26T02:22:14;101631.78;;;-1.79;78.47
21781;BME280;52576;53.614;9.894;2023-02-26T02:24:30;101630.97;;;-1.84;78.42
21781;BME280;52576;53.614;9.894;2023-02-26T02:26:55;101636.97;;;-1.88;78.57
21781;BME280;52576;53.614;9.894;2023-02-26T02:31:40;101638.69;;;-1.96;78.83
21781;BME280;52576;53.614;9.894;2023-02-26T02:33:48;101651.53;;;-1.99;78.79
21781;BME280;52576;53.614;9.894;2023-02-26T02:35:57;101637.84;;;-2.01;78.74
21781;BME280;52576;53.614;9.894;2023-02-26T02:38:06;101647.25;;;-2.03;78.94
21781;BME280;52576;53.614;9.894;2023-02-26T02:40:13;101650.69;;;-2.07;79.06
21781;BME280;52576;53.614;9.894;2023-02-26T02:42:23;101657.53;;;-2.08;79.07
21781;BME280;52576;53.614;9.894;2023-02-26T02:44:31;101660.13;;;-2.11;79.32
21781;BME280;52576;53.614;9.894;2023-02-26T02:46:42;101655.84;;;-2.13;79.33
21781;BME280;52576;53.614;9.894;2023-02-26T02:48:55;101661.84;;;-2.14;79.50
21781;BME280;52576;53.614;9.894;2023-02-26T02:51:03;101664.41;;;-2.16;79.50
21781;BME280;52576;53.614;9.894;2023-02-26T02:53:13;101664.41;;;-2.17;79.42
21781;BME280;52576;53.614;9.894;2023-02-26T02:55:21;101664.41;;;-2.20;79.52
21781;BME280;52576;53.614;9.894;2023-02-26T02:57:29;101672.97;;;-2.21;79.35
21781;BME280;52576;53.614;9.894;2023-02-26T02:59:38;101675.53;;;-2.23;79.57
21781;BME280;52576;53.614;9.894;2023-02-26T03:01:47;101678.09;;;-2.24;79.70
21781;BME280;52576;53.614;9.894;2023-02-26T03:03:57;101678.09;;;-2.24;79.56
21781;BME280;52576;53.614;9.894;2023-02-26T03:06:05;101679.81;;;-2.26;79.56
21781;BME280;52576;53.614;9.894;2023-02-26T03:08:11;101687.50;;;-2.29;79.70
21781;BME280;52576;53.614;9.894;2023-02-26T03:10:16;101691.78;;;-2.30;79.76
21781;BME280;52576;53.614;9.894;2023-02-26T03:12:19;101693.50;;;-2.30;79.63
21781;BME280;52576;53.614;9.894;2023-02-26T03:14:23;101694.34;;;-2.33;79.57
21781;BME280;52576;53.614;9.894;2023-02-26T03:16:37;101695.22;;;-2.34;79.62
21781;BME280;52576;53.614;9.894;2023-02-26T03:18:52;101702.06;;;-2.36;79.70
21781;BME280;52576;53.614;9.894;2023-02-26T03:21:04;101696.06;;;-2.38;79.52
21781;BME280;52576;53.614;9.894;2023-02-26T03:23:15;101698.63;;;-2.40;79.45
21781;BME280;52576;53.614;9.894;2023-02-26T03:25:25;101700.34;;;-2.42;79.73
21781;BME280;52576;53.614;9.894;2023-02-26T03:27:34;101705.47;;;-2.42;79.67
21781;BME280;52576;53.614;9.894;2023-02-26T03:29:42;101708.91;;;-2.43;79.52
21781;BME280;52576;53.614;9.894;2023-02-26T03:31:52;101717.44;;;-2.44;79.58
21781;BME280;52576;53.614;9.894;2023-02-26T03:34:01;101714.88;;;-2.45;79.56
21781;BME280;52576;53.614;9.894;2023-02-26T03:36:10;101714.88;;;-2.48;79.43
21781;BME280;52576;53.614;9.894;2023-02-26T03:38:29;101720.84;;;-2.51;79.44
21781;BME280;52576;53.614;9.894;2023-02-26T03:40:38;101721.72;;;-2.52;79.50
21781;BME280;52576;53.614;9.894;2023-02-26T03:42:50;101725.97;;;-2.54;79.48
21781;BME280;52576;53.614;9.894;2023-02-26T03:44:57;101732.81;;;-2.56;79.36
21781;BME280;52576;53.614;9.894;2023-02-26T03:47:04;101735.38;;;-2.57;79.55
21781;BME280;52576;53.614;9.894;2023-02-26T03:49:15;101739.66;;;-2.58;79.39
21781;BME280;52576;53.614;9.894;2023-02-26T03:51:22;101737.09;;;-2.61;79.28
21781;BME280;52576;53.614;9.894;2023-02-26T03:53:53;101742.25;;;-2.61;79.43
21781;BME280;52576;53.614;9.894;2023-02-26T03:56:04;101736.25;;;-2.63;79.35
21781;BME280;52576;53.614;9.894;2023-02-26T03:58:41;101749.06;;;-2.63;79.41
21781;BME280;52576;53.614;9.894;2023-02-26T04:01:21;101750.78;;;-2.65;79.40
21781;BME280;52576;53.614;9.894;2023-02-26T04:03:27;101760.19;;;-2.67;79.45
21781;BME280;52576;53.614;9.894;2023-02-26T04:05:38;101758.47;;;-2.68;79.47
21781;BME280;52576;53.614;9.894;2023-02-26T04:07:44;101765.28;;;-2.70;79.43
21781;BME280;52576;53.614;9.894;2023-02-26T04:09:49;101766.16;;;-2.71;79.38
21781;BME280;52576;53.614;9.894;2023-02-26T04:11:57;101760.16;;;-2.73;79.45
21781;BME280;52576;53.614;9.894;2023-02-26T04:14:01;101778.13;;;-2.73;79.32
21781;BME280;52576;53.614;9.894;2023-02-26T04:16:09;101777.25;;;-2.75;79.50
21781;BME280;52576;53.614;9.894;2023-02-26T04:18:13;101779.81;;;-2.77;79.52
21781;BME280;52576;53.614;9.894;2023-02-26T04:20:17;101785.78;;;-2.76;79.40
21781;BME280;52576;53.614;9.894;2023-02-26T04:22:21;101783.22;;;-2.78;79.44
21781;BME280;52576;53.614;9.894;2023-02-26T04:24:25;101785.78;;;-2.79;79.46
21781;BME280;52576;53.614;9.894;2023-02-26T04:26:32;101790.91;;;-2.79;79.56
21781;BME280;52576;53.614;9.894;2023-02-26T04:28:36;101798.59;;;-2.79;79.60
21781;BME280;52576;53.614;9.894;2023-02-26T04:30:40;101790.06;;;-2.80;79.64
21781;BME280;52576;53.614;9.894;2023-02-26T04:32:46;101795.19;;;-2.80;79.39
21781;BME280;52576;53.614;9.894;2023-02-26T04:34:49;101799.44;;;-2.80;79.61
21781;BME280;52576;53.614;9.894;2023-02-26T04:36:53;101796.88;;;-2.80;79.76
21781;BME280;52576;53.614;9.894;2023-02-26T04:38:58;101798.59;;;-2.81;79.71
21781;BME280;52576;53.614;9.894;2023-02-26T04:41:02;101802.00;;;-2.82;79.74
21781;BME280;52576;53.614;9.894;2023-02-26T04:43:05;101801.16;;;-2.82;79.67
21781;BME280;52576;53.614;9.894;2023-02-26T04:45:15;101795.16;;;-2.84;79.82
21781;BME280;52576;53.614;9.894;2023-02-26T04:47:18;101801.13;;;-2.85;79.79
21781;BME280;52576;53.614;9.894;2023-02-26T04:49:22;101803.72;;;-2.88;79.90
21781;BME280;52576;53.614;9.894;2023-02-26T04:51:26;101814.81;;;-2.89;79.87
21781;BME280;52576;53.614;9.894;2023-02-26T04:53:29;101817.38;;;-2.91;79.88
21781;BME280;52576;53.614;9.894;2023-02-26T04:55:35;101817.38;;;-2.92;79.86
21781;BME280;52576;53.614;9.894;2023-02-26T04:57:39;101827.63;;;-2.94;80.02
21781;BME280;52576;53.614;9.894;2023-02-26T04:59:44;101831.03;;;-2.96;80.04
21781;BME280;52576;53.614;9.894;2023-02-26T05:01:47;101831.88;;;-2.97;80.00
21781;BME280;52576;53.614;9.894;2023-02-26T05:03:51;101837.84;;;-2.98;79.93
21781;BME280;52576;53.614;9.894;2023-02-26T05:05:54;101832.72;;;-3.00;79.97
21781;BME280;52576;53.614;9.894;2023-02-26T05:07:58;101839.53;;;-3.00;80.04
21781;BME280;52576;53.614;9.894;2023-02-26T05:10:02;101840.41;;;-3.01;80.01
21781;BME280;52576;53.614;9.894;2023-02-26T05:12:07;101837.81;;;-3.03;79.98
21781;BME280;52576;53.614;9.894;2023-02-26T05:14:11;101842.09;;;-3.02;80.17
21781;BME280;52576;53.614;9.894;2023-02-26T05:16:15;101843.81;;;-3.02;80.04
21781;BME280;52576;53.614;9.894;2023-02-26T05:18:19;101858.34;;;-3.03;80.09
21781;BME280;52576;53.614;9.894;2023-02-26T05:20:22;101855.78;;;-3.03;80.04
21781;BME280;52576;53.614;9.894;2023-02-26T05:22:26;101860.88;;;-3.04;79.95
21781;BME280;52576;53.614;9.894;2023-02-26T05:24:30;101866.88;;;-3.05;79.88
21781;BME280;52576;53.614;9.894;2023-02-26T05:26:34;101862.59;;;-3.07;80.02
21781;BME280;52576;53.614;9.894;2023-02-26T05:28:39;101875.41;;;-3.07;79.89
21781;BME280;52576;53.614;9.894;2023-02-26T05:30:46;101874.56;;;-3.05;79.85
21781;BME280;52576;53.614;9.894;2023-02-26T05:32:50;101883.97;;;-3.06;79.65
21781;BME280;52576;53.614;9.894;2023-02-26T05:34:53;101878.84;;;-3.06;79.76
21781;BME280;52576;53.614;9.894;2023-02-26T05:36:57;101878.84;;;-3.06;79.74
21781;BME280;52576;53.614;9.894;2023-02-26T05:39:00;101882.25;;;-3.07;79.72
21781;BME280;52576;53.614;9.894;2023-02-26T05:41:04;101881.38;;;-3.08;79.48
21781;BME280;52576;53.614;9.894;2023-02-26T05:43:07;101895.91;;;-3.08;79.62
21781;BME280;52576;53.614;9.894;2023-02-26T05:45:12;101891.63;;;-3.08;79.58
21781;BME280;52576;53.614;9.894;2023-02-26T05:47:16;101889.94;;;-3.09;79.58
21781;BME280;52576;53.614;9.894;2023-02-26T05:49:19;101895.06;;;-3.09;79.40
21781;BME280;52576;53.614;9.894;2023-02-26T05:51:23;101898.47;;;-3.10;79.46
21781;BME280;52576;53.614;9.894;2023-02-26T05:53:26;101902.72;;;-3.10;79.47
21781;BME280;52576;53.614;9.894;2023-02-26T05:55:30;101903.59;;;-3.10;79.40
21781;BME280;52576;53.614;9.894;2023-02-26T05:57:34;101900.16;;;-3.12;79.45
21781;BME280;52576;53.614;9.894;2023-02-26T05:59:37;101910.41;;;-3.12;79.30
21781;BME280;52576;53.614;9.894;2023-02-26T06:01:42;101911.28;;;-3.13;79.12
21781;BME280;52576;53.614;9.894;2023-02-26T06:03:45;101912.13;;;-3.14;79.13
21781;BME280;52576;53.614;9.894;2023-02-26T06:05:49;101916.41;;;-3.14;79.15
21781;BME280;52576;53.614;9.894;2023-02-26T06:07:52;101920.69;;;-3.15;79.09
21781;BME280;52576;53.614;9.894;2023-02-26T06:09:56;101921.53;;;-3.16;79.00
21781;BME280;52576;53.614;9.894;2023-02-26T06:11:59;101926.63;;;-3.17;79.20
21781;BME280;52576;53.614;9.894;2023-02-26T06:14:03;101924.91;;;-3.18;79.00
21781;BME280;52576;53.614;9.894;2023-02-26T06:16:07;101925.78;;;-3.18;79.00
21781;BME280;52576;53.614;9.894;2023-02-26T06:18:12;101934.34;;;-3.17;78.81
21781;BME280;52576;53.614;9.894;2023-02-26T06:20:15;101939.47;;;-3.16;78.92
21781;BME280;52576;53.614;9.894;2023-02-26T06:22:19;101942.88;;;-3.17;78.74
21781;BME280;52576;53.614;9.894;2023-02-26T06:24:22;101942.03;;;-3.16;78.82
21781;BME280;52576;53.614;9.894;2023-02-26T06:26:26;101942.91;;;-3.14;78.64
21781;BME280;52576;53.614;9.894;2023-02-26T06:28:31;101949.75;;;-3.13;78.42
21781;BME280;52576;53.614;9.894;2023-02-26T06:30:35;101955.72;;;-3.11;78.42
21781;BME280;52576;53.614;9.894;2023-02-26T06:32:38;101965.13;;;-3.10;78.29
21781;BME280;52576;53.614;9.894;2023-02-26T06:34:43;101960.00;;;-3.10;78.29
21781;BME280;52576;53.614;9.894;2023-02-26T06:36:46;101961.72;;;-3.09;78.12
21781;BME280;52576;53.614;9.894;2023-02-26T06:38:50;101971.16;;;-3.08;78.02
21781;BME280;52576;53.614;9.894;2023-02-26T06:40:53;101972.88;;;-3.05;78.07
21781;BME280;52576;53.614;9.894;2023-02-26T06:42:57;101975.47;;;-3.03;77.88
21781;BME280;52576;53.614;9.894;2023-02-26T06:45:00;101975.47;;;-3.02;77.71
21781;BME280;52576;53.614;9.894;2023-02-26T06:47:04;101973.78;;;-2.98;77.60
21781;BME280;52576;53.614;9.894;2023-02-26T06:49:07;101973.81;;;-2.95;77.47
21781;BME280;52576;53.614;9.894;2023-02-26T06:51:12;101975.56;;;-2.91;77.61
21781;BME280;52576;53.614;9.894;2023-02-26T06:53:16;101977.31;;;-2.84;77.47
21781;BME280;52576;53.614;9.894;2023-02-26T06:55:19;101984.22;;;-2.77;77.34
21781;BME280;52576;53.614;9.894;2023-02-26T06:57:27;101984.28;;;-2.68;77.25
21781;BME280;52576;53.614;9.894;2023-02-26T06:59:31;101997.19;;;-2.60;77.11
21781;BME280;52576;53.614;9.894;2023-02-26T07:01:34;101993.78;;;-2.52;77.09
21781;BME280;52576;53.614;9.894;2023-02-26T07:03:38;101998.13;;;-2.45;76.89
21781;BME280;52576;53.614;9.894;2023-02-26T07:05:42;102001.59;;;-2.36;76.77
21781;BME280;52576;53.614;9.894;2023-02-26T07:07:50;101996.47;;;-2.30;77.04
21781;BME280;52576;53.614;9.894;2023-02-26T07:09:54;102010.22;;;-2.25;76.63
21781;BME280;52576;53.614;9.894;2023-02-26T07:11:57;102007.66;;;-2.21;76.31
21781;BME280;52576;53.614;9.894;2023-02-26T07:14:01;102005.13;;;-2.19;76.24
21781;BME280;52576;53.614;9.894;2023-02-26T07:16:05;102019.69;;;-2.17;76.05
21781;BME280;52576;53.614;9.894;2023-02-26T07:18:08;102017.97;;;-2.16;76.13
21781;BME280;52576;53.614;9.894;2023-02-26T07:20:13;102017.97;;;-2.15;75.94
21781;BME280;52576;53.614;9.894;2023-02-26T07:22:18;102025.69;;;-2.16;75.76
21781;BME280;52576;53.614;9.894;2023-02-26T07:24:24;102023.09;;;-2.18;75.93
21781;BME280;52576;53.614;9.894;2023-02-26T07:26:28;102022.25;;;-2.18;75.81
21781;BME280;52576;53.614;9.894;2023-02-26T07:28:31;102029.97;;;-2.17;75.78
21781;BME280;52576;53.614;9.894;2023-02-26T07:30:35;102028.25;;;-2.16;75.77
21781;BME280;52576;53.614;9.894;2023-02-26T07:32:38;102033.41;;;-2.15;75.63
21781;BME280;52576;53.614;9.894;2023-02-26T07:34:42;102035.13;;;-2.12;75.62
21781;BME280;52576;53.614;9.894;2023-02-26T07:36:45;102030.84;;;-2.10;75.58
21781;BME280;52576;53.614;9.894;2023-02-26T07:38:49;102034.28;;;-2.07;75.55
21781;BME280;52576;53.614;9.894;2023-02-26T07:40:55;102026.59;;;-2.02;75.49
21781;BME280;52576;53.614;9.894;2023-02-26T07:42:58;102030.91;;;-1.98;75.46
21781;BME280;52576;53.614;9.894;2023-02-26T07:45:02;102034.34;;;-1.93;75.50
21781;BME280;52576;53.614;9.894;2023-02-26T07:47:06;102034.41;;;-1.87;75.33
21781;BME280;52576;53.614;9.894;2023-02-26T07:49:10;102037.81;;;-1.82;75.17
21781;BME280;52576;53.614;9.894;2023-02-26T07:51:14;102033.56;;;-1.77;75.02
21781;BME280;52576;53.614;9.894;2023-02-26T07:53:17;102033.56;;;-1.74;75.08
21781;BME280;52576;53.614;9.894;2023-02-26T07:55:21;102041.31;;;-1.67;74.95
21781;BME280;52576;53.614;9.894;2023-02-26T07:57:26;102045.63;;;-1.63;75.00
21781;BME280;52576;53.614;9.894;2023-02-26T07:59:29;102049.06;;;-1.60;74.85
21781;BME280;52576;53.614;9.894;2023-02-26T08:01:33;102055.06;;;-1.56;74.62
21781;BME280;52576;53.614;9.894;2023-02-26T08:03:37;102049.94;;;-1.50;74.75
21781;BME280;52576;53.614;9.894;2023-02-26T08:05:40;102043.94;;;-1.46;74.60
21781;BME280;52576;53.614;9.894;2023-02-26T08:07:44;102049.97;;;-1.41;74.49
21781;BME280;52576;53.614;9.894;2023-02-26T08:09:47;102056.84;;;-1.34;74.50
21781;BME280;52576;53.614;9.894;2023-02-26T08:11:51;102065.41;;;-1.29;74.27
21781;BME280;52576;53.614;9.894;2023-02-26T08:13:55;102055.16;;;-1.24;74.27
21781;BME280;52576;53.614;9.894;2023-02-26T08:16:00;102065.47;;;-1.18;74.12
21781;BME280;52576;53.614;9.894;2023-02-26T08:18:03;102067.19;;;-1.13;74.10
21781;BME280;52576;53.614;9.894;2023-02-26T08:20:08;102066.34;;;-1.09;73.92
21781;BME280;52576;53.614;9.894;2023-02-26T08:22:12;102073.19;;;-1.03;73.98
21781;BME280;52576;53.614;9.894;2023-02-26T08:24:16;102076.63;;;-0.96;73.72
21781;BME280;52576;53.614;9.894;2023-02-26T08:26:20;102080.09;;;-0.91;73.67
21781;BME280;52576;53.614;9.894;2023-02-26T08:28:23;102087.81;;;-0.85;73.40
21781;BME280;52576;53.614;9.894;2023-02-26T08:30:28;102094.69;;;-0.81;73.16
21781;BME280;52576;53.614;9.894;2023-02-26T08:32:32;102098.97;;;-0.76;73.19
21781;BME280;52576;53.614;9.894;2023-02-26T08:34:35;102104.13;;;-0.70;72.99
21781;BME280;52576;53.614;9.894;2023-02-26T08:36:39;102108.44;;;-0.64;73.04
21781;BME280;52576;53.614;9.894;2023-02-26T08:38:42;102112.72;;;-0.58;72.88
21781;BME280;52576;53.614;9.894;2023-02-26T08:40:48;102120.44;;;-0.51;72.89
21781;BME280;52576;53.614;9.894;2023-02-26T08:42:52;102128.16;;;-0.43;72.78
21781;BME280;52576;53.614;9.894;2023-02-26T08:44:56;102123.88;;;-0.35;72.64
21781;BME280;52576;53.614;9.894;2023-02-26T08:47:01;102129.03;;;-0.27;72.52
21781;BME280;52576;53.614;9.894;2023-02-26T08:49:05;102129.88;;;-0.21;72.33
21781;BME280;52576;53.614;9.894;2023-02-26T08:51:08;102133.31;;;-0.16;72.15
21781;BME280;52576;53.614;9.894;2023-02-26T08:53:12;102141.91;;;-0.08;71.91
21781;BME280;52576;53.614;9.894;2023-02-26T08:55:16;102147.06;;;0.00;71.84
21781;BME280;52576;53.614;9.894;2023-02-26T08:57:19;102142.72;;;0.08;71.73
21781;BME280;52576;53.614;9.894;2023-02-26T08:59:23;102149.59;;;0.15;71.30
21781;BME280;52576;53.614;9.894;2023-02-26T09:01:27;102149.59;;;0.21;71.12
21781;BME280;52576;53.614;9.894;2023-02-26T09:03:32;102146.13;;;0.28;70.94
21781;BME280;52576;53.614;9.894;2023-02-26T09:05:36;102155.56;;;0.36;70.72
21781;BME280;52576;53.614;9.894;2023-02-26T09:07:40;102154.69;;;0.43;70.21
21781;BME280;52576;53.614;9.894;2023-02-26T09:09:43;102166.72;;;0.50;70.11
21781;BME280;52576;53.614;9.894;2023-02-26T09:11:47;102172.69;;;0.59;69.84
21781;BME280;52576;53.614;9.894;2023-02-26T09:13:50;102164.94;;;0.67;69.42
21781;BME280;52576;53.614;9.894;2023-02-26T09:15:53;102158.03;;;0.75;69.02
21781;BME280;52576;53.614;9.894;2023-02-26T09:17:58;102161.41;;;0.83;68.67
21781;BME280;52576;53.614;9.894;2023-02-26T09:20:03;102169.97;;;0.94;68.36
21781;BME280;52576;53.614;9.894;2023-02-26T09:22:07;102169.03;;;1.06;67.96
21781;BME280;52576;53.614;9.894;2023-02-26T09:24:11;102166.41;;;1.17;67.38
21781;BME280;52576;53.614;9.894;2023-02-26T09:26:14;102167.22;;;1.25;67.07
21781;BME280;52576;53.614;9.894;2023-02-26T09:28:18;102170.59;;;1.31;66.51
21781;BME280;52576;53.614;9.894;2023-02-26T09:30:21;102174.03;;;1.36;66.37
21781;BME280;52576;53.614;9.894;2023-02-26T09:32:25;102178.31;;;1.39;66.17
21781;BME280;52576;53.614;9.894;2023-02-26T09:34:29;102185.19;;;1.43;65.95
21781;BME280;52576;53.614;9.894;2023-02-26T09:36:33;102183.44;;;1.48;66.08
21781;BME280;52576;53.614;9.894;2023-02-26T09:38:38;102186.78;;;1.58;65.83
21781;BME280;52576;53.614;9.894;2023-02-26T09:40:45;102190.19;;;1.67;65.53
21781;BME280;52576;53.614;9.894;2023-02-26T09:43:04;102193.53;;;1.79;65.51
21781;BME280;52576;53.614;9.894;2023-02-26T09:45:14;102196.88;;;1.90;65.22
21781;BME280;52576;53.614;9.894;2023-02-26T09:47:27;102201.13;;;1.98;64.94
21781;BME280;52576;53.614;9.894;2023-02-26T09:49:44;102193.31;;;2.04;64.34
21781;BME280;52576;53.614;9.894;2023-02-26T09:51:53;102195.91;;;2.06;64.35
21781;BME280;52576;53.614;9.894;2023-02-26T09:53:58;102198.50;;;2.06;63.99
21781;BME280;52576;53.614;9.894;2023-02-26T09:56:05;102194.13;;;2.08;64.03
21781;BME280;52576;53.614;9.894;2023-02-26T09:58:14;102201.88;;;2.11;63.94
21781;BME280;52576;53.614;9.894;2023-02-26T10:00:23;102210.44;;;2.16;63.43
21781;BME280;52576;53.614;9.894;2023-02-26T10:02:37;102201.78;;;2.20;62.95
21781;BME280;52576;53.614;9.894;2023-02-26T10:04:50;102215.53;;;2.27;62.79
21781;BME280;52576;53.614;9.894;2023-02-26T10:07:06;102216.28;;;2.36;62.66
21781;BME280;52576;53.614;9.894;2023-02-26T10:09:25;102217.91;;;2.47;62.08
21781;BME280;52576;53.614;9.894;2023-02-26T10:11:35;102211.78;;;2.57;61.92
21781;BME280;52576;53.614;9.894;2023-02-26T10:13:45;102221.16;;;2.65;61.55
21781;BME280;52576;53.614;9.894;2023-02-26T10:16:04;102225.41;;;2.71;61.24
21781;BME280;52576;53.614;9.894;2023-02-26T10:18:17;102231.44;;;2.73;60.61
21781;BME280;52576;53.614;9.894;2023-02-26T10:20:26;102227.09;;;2.77;60.38
21781;BME280;52576;53.614;9.894;2023-02-26T10:22:36;102223.56;;;2.82;60.41
21781;BME280;52576;53.614;9.894;2023-02-26T10:24:43;102233.78;;;2.93;60.18
21781;BME280;52576;53.614;9.894;2023-02-26T10:26:51;102237.13;;;3.02;59.45
21781;BME280;52576;53.614;9.894;2023-02-26T10:29:03;102233.59;;;3.10;59.35
21781;BME280;52576;53.614;9.894;2023-02-26T10:31:17;102230.94;;;3.14;59.03
21781;BME280;52576;53.614;9.894;2023-02-26T10:33:32;102234.38;;;3.15;59.09
21781;BME280;52576;53.614;9.894;2023-02-26T10:35:41;102246.44;;;3.16;58.89
21781;BME280;52576;53.614;9.894;2023-02-26T10:37:52;102243.88;;;3.16;58.84
21781;BME280;52576;53.614;9.894;2023-02-26T10:40:03;102238.69;;;3.16;58.68
21781;BME280;52576;53.614;9.894;2023-02-26T10:42:14;102236.06;;;3.19;58.62
21781;BME280;52576;53.614;9.894;2023-02-26T10:44:25;102237.75;;;3.21;58.80
21781;BME280;52576;53.614;9.894;2023-02-26T10:46:38;102238.63;;;3.22;58.33
21781;BME280;52576;53.614;9.894;2023-02-26T10:48:54;102238.56;;;3.26;58.58
21781;BME280;52576;53.614;9.894;2023-02-26T10:51:08;102258.34;;;3.32;58.46
21781;BME280;52576;53.614;9.894;2023-02-26T10:53:15;102253.91;;;3.40;58.35
21781;BME280;52576;53.614;9.894;2023-02-26T10:55:25;102264.25;;;3.43;57.85
21781;BME280;52576;53.614;9.894;2023-02-26T10:57:35;102261.69;;;3.38;57.42
21781;BME280;52576;53.614;9.894;2023-02-26T10:59:40;102260.09;;;3.30;57.52
21781;BME280;52576;53.614;9.894;2023-02-26T11:01:43;102266.19;;;3.26;57.65
21781;BME280;52576;53.614;9.894;2023-02-26T11:03:50;102257.59;;;3.24;57.75
21781;BME280;52576;53.614;9.894;2023-02-26T11:05:57;102265.34;;;3.25;57.83
21781;BME280;52576;53.614;9.894;2023-02-26T11:08:02;102267.88;;;3.30;57.52